sensor_id;sensor_type;location;lat;lon;timestamp;P1;durP1;ratioP1;P2;durP2;ratioP2
12163;SDS011;6145;50.192;10.064;2022-12-07T00:00:50;12.03;;;7.67;;
12163;SDS011;6145;50.192;10.064;2022-12-07T00:03:17;11.10;;;7.43;;
12163;SDS011;6145;50.192;10.064;2022-12-07T00:05:46;10.30;;;7.83;;
12163;SDS011;6145;50.192;10.064;2022-12-07T00:08:12;10.83;;;7.97;;
12163;SDS011;6145;50.192;10.064;2022-12-07T00:10:39;9.90;;;7.87;;
12163;SDS011;6145;50.192;10.064;2022-12-07T00:13:06;11.87;;;8.80;;
12163;SDS011;6145;50.192;10.064;2022-12-07T00:15:33;10.77;;;8.13;;
12163;SDS011;6145;50.192;10.064;2022-12-07T00:18:01;11.23;;;8.47;;
12163;SDS011;6145;50.192;10.064;2022-12-07T00:20:27;11.83;;;8.70;;
12163;SDS011;6145;50.192;10.064;2022-12-07T00:22:56;10.97;;;7.60;;
12163;SDS011;6145;50.192;10.064;2022-12-07T00:25:23;11.77;;;8.20;;
12163;SDS011;6145;50.192;10.064;2022-12-07T00:27:50;11.40;;;8.20;;
12163;SDS011;6145;50.192;10.064;2022-12-07T00:30:18;9.30;;;7.70;;
12163;SDS011;6145;50.192;10.064;2022-12-07T00:32:45;9.57;;;7.67;;
12163;SDS011;6145;50.192;10.064;2022-12-07T00:35:12;11.17;;;8.30;;
12163;SDS011;6145;50.192;10.064;2022-12-07T00:37:39;11.53;;;7.67;;
12163;SDS011;6145;50.192;10.064;2022-12-07T00:40:08;13.23;;;8.17;;
12163;SDS011;6145;50.192;10.064;2022-12-07T00:42:35;13.90;;;9.60;;
12163;SDS011;6145;50.192;10.064;2022-12-07T00:45:02;10.73;;;7.43;;
12163;SDS011;6145;50.192;10.064;2022-12-07T00:47:29;12.77;;;8.07;;
12163;SDS011;6145;50.192;10.064;2022-12-07T00:49:56;11.03;;;8.57;;
12163;SDS011;6145;50.192;10.064;2022-12-07T00:52:23;11.23;;;8.53;;
12163;SDS011;6145;50.192;10.064;2022-12-07T00:54:50;9.97;;;8.17;;
12163;SDS011;6145;50.192;10.064;2022-12-07T00:57:18;14.60;;;10.47;;
12163;SDS011;6145;50.192;10.064;2022-12-07T00:59:45;14.07;;;9.67;;
12163;SDS011;6145;50.192;10.064;2022-12-07T01:02:12;11.70;;;8.53;;
12163;SDS011;6145;50.192;10.064;2022-12-07T01:04:39;12.07;;;8.40;;
12163;SDS011;6145;50.192;10.064;2022-12-07T01:07:06;12.83;;;8.60;;
12163;SDS011;6145;50.192;10.064;2022-12-07T01:09:33;12.93;;;8.47;;
12163;SDS011;6145;50.192;10.064;2022-12-07T01:12:00;10.83;;;8.20;;
12163;SDS011;6145;50.192;10.064;2022-12-07T01:14:29;12.43;;;9.17;;
12163;SDS011;6145;50.192;10.064;2022-12-07T01:16:56;15.77;;;9.53;;
12163;SDS011;6145;50.192;10.064;2022-12-07T01:19:22;11.47;;;8.40;;
12163;SDS011;6145;50.192;10.064;2022-12-07T01:21:49;13.23;;;8.90;;
12163;SDS011;6145;50.192;10.064;2022-12-07T01:24:16;15.57;;;11.73;;
12163;SDS011;6145;50.192;10.064;2022-12-07T01:26:43;12.57;;;8.73;;
12163;SDS011;6145;50.192;10.064;2022-12-07T01:29:09;15.53;;;10.03;;
12163;SDS011;6145;50.192;10.064;2022-12-07T01:31:38;13.03;;;9.03;;
12163;SDS011;6145;50.192;10.064;2022-12-07T01:34:05;14.00;;;9.00;;
12163;SDS011;6145;50.192;10.064;2022-12-07T01:36:32;15.27;;;9.83;;
12163;SDS011;6145;50.192;10.064;2022-12-07T01:39:02;15.80;;;10.27;;
12163;SDS011;6145;50.192;10.064;2022-12-07T01:41:31;15.00;;;9.20;;
12163;SDS011;6145;50.192;10.064;2022-12-07T01:44:10;14.40;;;10.27;;
12163;SDS011;6145;50.192;10.064;2022-12-07T01:46:59;15.30;;;10.23;;
12163;SDS011;6145;50.192;10.064;2022-12-07T01:49:28;16.30;;;9.30;;
12163;SDS011;6145;50.192;10.064;2022-12-07T01:52:05;15.27;;;8.37;;
12163;SDS011;6145;50.192;10.064;2022-12-07T01:54:39;15.90;;;9.80;;
12163;SDS011;6145;50.192;10.064;2022-12-07T01:57:07;12.20;;;8.57;;
12163;SDS011;6145;50.192;10.064;2022-12-07T01:59:34;15.07;;;10.50;;
12163;SDS011;6145;50.192;10.064;2022-12-07T02:02:04;13.83;;;9.70;;
12163;SDS011;6145;50.192;10.064;2022-12-07T02:04:36;15.13;;;9.87;;
12163;SDS011;6145;50.192;10.064;2022-12-07T02:07:03;14.70;;;9.33;;
12163;SDS011;6145;50.192;10.064;2022-12-07T02:09:31;15.30;;;10.67;;
12163;SDS011;6145;50.192;10.064;2022-12-07T02:11:58;12.83;;;8.73;;
12163;SDS011;6145;50.192;10.064;2022-12-07T02:14:25;14.20;;;9.93;;
12163;SDS011;6145;50.192;10.064;2022-12-07T02:16:54;13.40;;;10.20;;
12163;SDS011;6145;50.192;10.064;2022-12-07T02:25:44;15.83;;;9.40;;
12163;SDS011;6145;50.192;10.064;2022-12-07T02:28:25;13.00;;;8.90;;
12163;SDS011;6145;50.192;10.064;2022-12-07T02:31:00;14.60;;;9.80;;
12163;SDS011;6145;50.192;10.064;2022-12-07T02:33:31;13.47;;;9.33;;
12163;SDS011;6145;50.192;10.064;2022-12-07T02:36:04;14.07;;;9.33;;
12163;SDS011;6145;50.192;10.064;2022-12-07T02:38:35;14.20;;;9.33;;
12163;SDS011;6145;50.192;10.064;2022-12-07T02:41:07;13.73;;;9.77;;
12163;SDS011;6145;50.192;10.064;2022-12-07T02:43:40;15.20;;;10.07;;
12163;SDS011;6145;50.192;10.064;2022-12-07T02:46:13;14.77;;;9.37;;
12163;SDS011;6145;50.192;10.064;2022-12-07T02:48:43;14.30;;;9.00;;
12163;SDS011;6145;50.192;10.064;2022-12-07T02:51:11;15.17;;;9.93;;
12163;SDS011;6145;50.192;10.064;2022-12-07T02:53:39;13.90;;;9.50;;
12163;SDS011;6145;50.192;10.064;2022-12-07T02:56:07;16.87;;;9.90;;
12163;SDS011;6145;50.192;10.064;2022-12-07T02:58:46;13.23;;;9.43;;
12163;SDS011;6145;50.192;10.064;2022-12-07T03:01:28;16.60;;;10.37;;
12163;SDS011;6145;50.192;10.064;2022-12-07T03:04:03;15.67;;;9.23;;
12163;SDS011;6145;50.192;10.064;2022-12-07T03:06:38;15.33;;;9.90;;
12163;SDS011;6145;50.192;10.064;2022-12-07T03:09:13;17.33;;;11.07;;
12163;SDS011;6145;50.192;10.064;2022-12-07T03:11:47;15.67;;;9.70;;
12163;SDS011;6145;50.192;10.064;2022-12-07T03:14:17;14.40;;;10.47;;
12163;SDS011;6145;50.192;10.064;2022-12-07T03:16:51;16.30;;;10.83;;
12163;SDS011;6145;50.192;10.064;2022-12-07T03:19:21;15.17;;;10.17;;
12163;SDS011;6145;50.192;10.064;2022-12-07T03:21:52;17.27;;;10.77;;
12163;SDS011;6145;50.192;10.064;2022-12-07T03:24:24;15.20;;;10.90;;
12163;SDS011;6145;50.192;10.064;2022-12-07T03:26:55;13.80;;;9.93;;
12163;SDS011;6145;50.192;10.064;2022-12-07T03:29:28;15.80;;;10.47;;
12163;SDS011;6145;50.192;10.064;2022-12-07T03:32:00;15.57;;;9.87;;
12163;SDS011;6145;50.192;10.064;2022-12-07T03:34:32;15.23;;;10.40;;
12163;SDS011;6145;50.192;10.064;2022-12-07T03:37:04;15.33;;;9.60;;
12163;SDS011;6145;50.192;10.064;2022-12-07T03:39:33;15.57;;;11.20;;
12163;SDS011;6145;50.192;10.064;2022-12-07T03:42:05;14.70;;;9.83;;
12163;SDS011;6145;50.192;10.064;2022-12-07T03:44:34;16.33;;;11.17;;
12163;SDS011;6145;50.192;10.064;2022-12-07T03:47:04;16.17;;;11.17;;
12163;SDS011;6145;50.192;10.064;2022-12-07T03:49:37;16.23;;;10.83;;
12163;SDS011;6145;50.192;10.064;2022-12-07T03:52:11;16.00;;;10.67;;
12163;SDS011;6145;50.192;10.064;2022-12-07T03:54:44;16.13;;;11.10;;
12163;SDS011;6145;50.192;10.064;2022-12-07T03:57:17;17.43;;;11.67;;
12163;SDS011;6145;50.192;10.064;2022-12-07T03:59:45;18.63;;;10.70;;
12163;SDS011;6145;50.192;10.064;2022-12-07T04:02:14;17.57;;;11.80;;
12163;SDS011;6145;50.192;10.064;2022-12-07T04:04:43;15.60;;;11.43;;
12163;SDS011;6145;50.192;10.064;2022-12-07T04:07:09;16.97;;;11.83;;
12163;SDS011;6145;50.192;10.064;2022-12-07T04:09:37;17.67;;;11.30;;
12163;SDS011;6145;50.192;10.064;2022-12-07T04:12:05;14.97;;;10.70;;
12163;SDS011;6145;50.192;10.064;2022-12-07T04:14:32;16.80;;;11.43;;
12163;SDS011;6145;50.192;10.064;2022-12-07T04:16:59;17.20;;;10.77;;
12163;SDS011;6145;50.192;10.064;2022-12-07T04:19:28;14.00;;;10.17;;
12163;SDS011;6145;50.192;10.064;2022-12-07T04:21:56;16.03;;;10.47;;
12163;SDS011;6145;50.192;10.064;2022-12-07T04:24:24;16.93;;;10.27;;
12163;SDS011;6145;50.192;10.064;2022-12-07T04:26:51;18.50;;;11.87;;
12163;SDS011;6145;50.192;10.064;2022-12-07T04:29:18;18.33;;;11.80;;
12163;SDS011;6145;50.192;10.064;2022-12-07T04:31:45;16.23;;;11.50;;
12163;SDS011;6145;50.192;10.064;2022-12-07T04:34:13;16.63;;;10.90;;
12163;SDS011;6145;50.192;10.064;2022-12-07T04:36:41;18.53;;;11.47;;
12163;SDS011;6145;50.192;10.064;2022-12-07T04:39:13;19.33;;;11.13;;
12163;SDS011;6145;50.192;10.064;2022-12-07T04:41:45;14.50;;;10.10;;
12163;SDS011;6145;50.192;10.064;2022-12-07T04:44:12;16.73;;;10.60;;
12163;SDS011;6145;50.192;10.064;2022-12-07T04:46:40;17.07;;;9.90;;
12163;SDS011;6145;50.192;10.064;2022-12-07T04:49:07;15.13;;;10.17;;
12163;SDS011;6145;50.192;10.064;2022-12-07T04:51:34;15.60;;;10.50;;
12163;SDS011;6145;50.192;10.064;2022-12-07T04:54:02;17.43;;;10.83;;
12163;SDS011;6145;50.192;10.064;2022-12-07T04:56:30;14.77;;;10.27;;
12163;SDS011;6145;50.192;10.064;2022-12-07T04:58:57;19.60;;;11.90;;
12163;SDS011;6145;50.192;10.064;2022-12-07T05:01:24;18.10;;;11.13;;
12163;SDS011;6145;50.192;10.064;2022-12-07T05:03:51;14.80;;;10.63;;
12163;SDS011;6145;50.192;10.064;2022-12-07T05:06:18;15.80;;;10.77;;
12163;SDS011;6145;50.192;10.064;2022-12-07T05:08:45;18.80;;;11.17;;
12163;SDS011;6145;50.192;10.064;2022-12-07T05:11:14;17.07;;;11.27;;
12163;SDS011;6145;50.192;10.064;2022-12-07T05:13:55;15.37;;;10.57;;
12163;SDS011;6145;50.192;10.064;2022-12-07T05:16:22;18.10;;;11.60;;
12163;SDS011;6145;50.192;10.064;2022-12-07T05:18:49;17.43;;;13.27;;
12163;SDS011;6145;50.192;10.064;2022-12-07T05:21:16;16.50;;;10.33;;
12163;SDS011;6145;50.192;10.064;2022-12-07T05:23:43;15.63;;;10.30;;
12163;SDS011;6145;50.192;10.064;2022-12-07T05:26:09;17.27;;;11.27;;
12163;SDS011;6145;50.192;10.064;2022-12-07T05:28:38;16.23;;;9.63;;
12163;SDS011;6145;50.192;10.064;2022-12-07T05:31:05;17.30;;;10.10;;
12163;SDS011;6145;50.192;10.064;2022-12-07T05:33:32;13.50;;;10.20;;
12163;SDS011;6145;50.192;10.064;2022-12-07T05:35:59;15.73;;;10.30;;
12163;SDS011;6145;50.192;10.064;2022-12-07T05:38:30;14.87;;;10.77;;
12163;SDS011;6145;50.192;10.064;2022-12-07T05:40:59;15.03;;;10.83;;
12163;SDS011;6145;50.192;10.064;2022-12-07T05:43:27;14.80;;;9.90;;
12163;SDS011;6145;50.192;10.064;2022-12-07T05:45:55;15.97;;;10.23;;
12163;SDS011;6145;50.192;10.064;2022-12-07T05:48:22;15.47;;;8.90;;
12163;SDS011;6145;50.192;10.064;2022-12-07T05:50:49;13.93;;;10.03;;
12163;SDS011;6145;50.192;10.064;2022-12-07T05:53:17;15.33;;;9.87;;
12163;SDS011;6145;50.192;10.064;2022-12-07T05:55:44;14.97;;;10.13;;
12163;SDS011;6145;50.192;10.064;2022-12-07T05:58:11;13.83;;;10.30;;
12163;SDS011;6145;50.192;10.064;2022-12-07T06:00:56;18.03;;;11.57;;
12163;SDS011;6145;50.192;10.064;2022-12-07T06:03:23;14.47;;;10.03;;
12163;SDS011;6145;50.192;10.064;2022-12-07T06:05:51;13.67;;;9.50;;
12163;SDS011;6145;50.192;10.064;2022-12-07T06:08:18;16.33;;;10.87;;
12163;SDS011;6145;50.192;10.064;2022-12-07T06:10:46;13.07;;;9.67;;
12163;SDS011;6145;50.192;10.064;2022-12-07T06:13:34;14.30;;;9.33;;
12163;SDS011;6145;50.192;10.064;2022-12-07T06:16:01;15.47;;;9.57;;
12163;SDS011;6145;50.192;10.064;2022-12-07T06:18:28;15.53;;;8.80;;
12163;SDS011;6145;50.192;10.064;2022-12-07T06:20:55;16.87;;;9.67;;
12163;SDS011;6145;50.192;10.064;2022-12-07T06:23:22;13.70;;;9.07;;
12163;SDS011;6145;50.192;10.064;2022-12-07T06:25:49;15.40;;;9.70;;
12163;SDS011;6145;50.192;10.064;2022-12-07T06:28:15;12.80;;;8.77;;
12163;SDS011;6145;50.192;10.064;2022-12-07T06:30:42;13.53;;;8.67;;
12163;SDS011;6145;50.192;10.064;2022-12-07T06:33:10;9.70;;;7.10;;
12163;SDS011;6145;50.192;10.064;2022-12-07T06:35:37;14.77;;;9.37;;
12163;SDS011;6145;50.192;10.064;2022-12-07T06:38:04;14.23;;;9.07;;
12163;SDS011;6145;50.192;10.064;2022-12-07T06:40:31;15.47;;;8.97;;
12163;SDS011;6145;50.192;10.064;2022-12-07T06:42:58;15.83;;;9.27;;
12163;SDS011;6145;50.192;10.064;2022-12-07T06:45:25;12.30;;;9.00;;
12163;SDS011;6145;50.192;10.064;2022-12-07T06:47:51;14.23;;;9.03;;
12163;SDS011;6145;50.192;10.064;2022-12-07T06:50:20;14.60;;;10.47;;
12163;SDS011;6145;50.192;10.064;2022-12-07T06:52:46;13.87;;;8.67;;
12163;SDS011;6145;50.192;10.064;2022-12-07T06:55:13;15.90;;;10.30;;
12163;SDS011;6145;50.192;10.064;2022-12-07T06:57:40;13.33;;;10.10;;
12163;SDS011;6145;50.192;10.064;2022-12-07T07:00:08;19.23;;;9.87;;
12163;SDS011;6145;50.192;10.064;2022-12-07T07:02:35;13.60;;;8.53;;
12163;SDS011;6145;50.192;10.064;2022-12-07T07:05:02;12.43;;;8.93;;
12163;SDS011;6145;50.192;10.064;2022-12-07T07:07:31;14.53;;;9.53;;
12163;SDS011;6145;50.192;10.064;2022-12-07T07:09:57;15.83;;;10.13;;
12163;SDS011;6145;50.192;10.064;2022-12-07T07:12:24;15.17;;;8.90;;
12163;SDS011;6145;50.192;10.064;2022-12-07T07:14:51;15.40;;;10.00;;
12163;SDS011;6145;50.192;10.064;2022-12-07T07:17:18;14.00;;;9.47;;
12163;SDS011;6145;50.192;10.064;2022-12-07T07:19:45;13.90;;;9.77;;
12163;SDS011;6145;50.192;10.064;2022-12-07T07:22:11;16.83;;;10.37;;
12163;SDS011;6145;50.192;10.064;2022-12-07T07:24:40;17.57;;;10.40;;
12163;SDS011;6145;50.192;10.064;2022-12-07T07:27:07;15.17;;;10.20;;
12163;SDS011;6145;50.192;10.064;2022-12-07T07:29:34;12.70;;;9.83;;
12163;SDS011;6145;50.192;10.064;2022-12-07T07:32:00;12.40;;;9.20;;
12163;SDS011;6145;50.192;10.064;2022-12-07T07:34:27;12.90;;;9.03;;
12163;SDS011;6145;50.192;10.064;2022-12-07T07:36:54;15.80;;;10.63;;
12163;SDS011;6145;50.192;10.064;2022-12-07T07:39:21;15.87;;;10.27;;
12163;SDS011;6145;50.192;10.064;2022-12-07T07:41:49;15.13;;;10.30;;
12163;SDS011;6145;50.192;10.064;2022-12-07T07:44:16;14.13;;;10.70;;
12163;SDS011;6145;50.192;10.064;2022-12-07T07:46:43;13.47;;;9.60;;
12163;SDS011;6145;50.192;10.064;2022-12-07T07:49:10;15.70;;;10.60;;
12163;SDS011;6145;50.192;10.064;2022-12-07T07:51:37;15.67;;;10.70;;
12163;SDS011;6145;50.192;10.064;2022-12-07T07:54:04;13.27;;;9.60;;
12163;SDS011;6145;50.192;10.064;2022-12-07T07:56:31;15.80;;;11.47;;
12163;SDS011;6145;50.192;10.064;2022-12-07T07:58:59;15.87;;;11.40;;
12163;SDS011;6145;50.192;10.064;2022-12-07T08:01:25;15.60;;;11.40;;
12163;SDS011;6145;50.192;10.064;2022-12-07T08:03:52;15.53;;;11.43;;
12163;SDS011;6145;50.192;10.064;2022-12-07T08:06:19;16.57;;;11.70;;
12163;SDS011;6145;50.192;10.064;2022-12-07T08:08:46;19.97;;;14.47;;
12163;SDS011;6145;50.192;10.064;2022-12-07T08:11:13;14.73;;;11.17;;
12163;SDS011;6145;50.192;10.064;2022-12-07T08:13:40;18.70;;;12.67;;
12163;SDS011;6145;50.192;10.064;2022-12-07T08:16:09;18.00;;;11.40;;
12163;SDS011;6145;50.192;10.064;2022-12-07T08:18:36;15.30;;;10.53;;
12163;SDS011;6145;50.192;10.064;2022-12-07T08:21:05;17.67;;;12.43;;
12163;SDS011;6145;50.192;10.064;2022-12-07T08:23:33;16.77;;;11.63;;
12163;SDS011;6145;50.192;10.064;2022-12-07T08:26:00;17.10;;;12.20;;
12163;SDS011;6145;50.192;10.064;2022-12-07T08:28:27;15.27;;;11.20;;
12163;SDS011;6145;50.192;10.064;2022-12-07T08:30:58;15.20;;;11.07;;
12163;SDS011;6145;50.192;10.064;2022-12-07T08:33:26;17.70;;;11.90;;
12163;SDS011;6145;50.192;10.064;2022-12-07T08:35:53;17.50;;;11.73;;
12163;SDS011;6145;50.192;10.064;2022-12-07T08:38:20;15.40;;;10.60;;
12163;SDS011;6145;50.192;10.064;2022-12-07T08:40:53;15.23;;;10.53;;
12163;SDS011;6145;50.192;10.064;2022-12-07T08:43:21;15.93;;;10.83;;
12163;SDS011;6145;50.192;10.064;2022-12-07T08:45:48;15.07;;;10.83;;
12163;SDS011;6145;50.192;10.064;2022-12-07T08:48:23;17.07;;;10.77;;
12163;SDS011;6145;50.192;10.064;2022-12-07T08:50:52;15.83;;;10.77;;
12163;SDS011;6145;50.192;10.064;2022-12-07T08:53:19;14.13;;;9.80;;
12163;SDS011;6145;50.192;10.064;2022-12-07T08:55:46;11.77;;;9.20;;
12163;SDS011;6145;50.192;10.064;2022-12-07T08:58:14;12.80;;;11.00;;
12163;SDS011;6145;50.192;10.064;2022-12-07T09:00:42;11.57;;;10.37;;
12163;SDS011;6145;50.192;10.064;2022-12-07T09:03:08;11.10;;;8.53;;
12163;SDS011;6145;50.192;10.064;2022-12-07T09:05:37;10.67;;;9.00;;
12163;SDS011;6145;50.192;10.064;2022-12-07T09:08:05;11.53;;;8.57;;
12163;SDS011;6145;50.192;10.064;2022-12-07T09:10:33;11.90;;;9.23;;
12163;SDS011;6145;50.192;10.064;2022-12-07T09:13:00;13.03;;;8.53;;
12163;SDS011;6145;50.192;10.064;2022-12-07T09:15:27;11.67;;;8.23;;
12163;SDS011;6145;50.192;10.064;2022-12-07T09:17:54;11.60;;;8.87;;
12163;SDS011;6145;50.192;10.064;2022-12-07T09:20:21;12.47;;;8.33;;
12163;SDS011;6145;50.192;10.064;2022-12-07T09:22:48;10.80;;;8.63;;
12163;SDS011;6145;50.192;10.064;2022-12-07T09:25:16;9.97;;;6.87;;
12163;SDS011;6145;50.192;10.064;2022-12-07T09:27:43;11.50;;;7.87;;
12163;SDS011;6145;50.192;10.064;2022-12-07T09:30:10;10.73;;;7.13;;
12163;SDS011;6145;50.192;10.064;2022-12-07T09:32:37;12.37;;;9.10;;
12163;SDS011;6145;50.192;10.064;2022-12-07T09:35:04;9.37;;;7.73;;
12163;SDS011;6145;50.192;10.064;2022-12-07T09:37:31;10.93;;;8.13;;
12163;SDS011;6145;50.192;10.064;2022-12-07T09:40:01;9.97;;;7.87;;
12163;SDS011;6145;50.192;10.064;2022-12-07T09:42:34;10.50;;;8.47;;
12163;SDS011;6145;50.192;10.064;2022-12-07T09:45:04;9.87;;;7.10;;
12163;SDS011;6145;50.192;10.064;2022-12-07T09:47:33;8.57;;;7.13;;
12163;SDS011;6145;50.192;10.064;2022-12-07T09:50:03;11.07;;;6.53;;
12163;SDS011;6145;50.192;10.064;2022-12-07T09:52:31;8.30;;;6.70;;
12163;SDS011;6145;50.192;10.064;2022-12-07T09:54:58;7.17;;;5.90;;
12163;SDS011;6145;50.192;10.064;2022-12-07T09:57:27;7.97;;;5.97;;
12163;SDS011;6145;50.192;10.064;2022-12-07T10:00:01;8.73;;;6.93;;
12163;SDS011;6145;50.192;10.064;2022-12-07T10:02:34;8.73;;;6.70;;
12163;SDS011;6145;50.192;10.064;2022-12-07T10:05:03;7.30;;;5.47;;
12163;SDS011;6145;50.192;10.064;2022-12-07T10:07:32;6.80;;;5.40;;
12163;SDS011;6145;50.192;10.064;2022-12-07T10:09:59;8.97;;;5.93;;
12163;SDS011;6145;50.192;10.064;2022-12-07T10:12:27;8.27;;;6.40;;
12163;SDS011;6145;50.192;10.064;2022-12-07T10:14:57;7.40;;;5.63;;
12163;SDS011;6145;50.192;10.064;2022-12-07T10:20:24;9.90;;;5.73;;
12163;SDS011;6145;50.192;10.064;2022-12-07T10:22:59;8.07;;;5.27;;
12163;SDS011;6145;50.192;10.064;2022-12-07T10:25:29;6.70;;;5.93;;
12163;SDS011;6145;50.192;10.064;2022-12-07T10:28:08;7.33;;;5.00;;
12163;SDS011;6145;50.192;10.064;2022-12-07T10:30:49;8.60;;;5.17;;
12163;SDS011;6145;50.192;10.064;2022-12-07T10:33:29;6.37;;;5.23;;
12163;SDS011;6145;50.192;10.064;2022-12-07T10:35:59;8.27;;;5.67;;
12163;SDS011;6145;50.192;10.064;2022-12-07T10:38:27;8.23;;;5.93;;
12163;SDS011;6145;50.192;10.064;2022-12-07T10:41:03;7.53;;;5.57;;
12163;SDS011;6145;50.192;10.064;2022-12-07T10:43:33;7.07;;;5.07;;
12163;SDS011;6145;50.192;10.064;2022-12-07T10:46:07;7.57;;;6.20;;
12163;SDS011;6145;50.192;10.064;2022-12-07T10:48:50;6.63;;;5.00;;
12163;SDS011;6145;50.192;10.064;2022-12-07T10:51:23;8.20;;;5.13;;
12163;SDS011;6145;50.192;10.064;2022-12-07T10:54:01;9.33;;;5.80;;
12163;SDS011;6145;50.192;10.064;2022-12-07T10:59:39;7.93;;;6.27;;
12163;SDS011;6145;50.192;10.064;2022-12-07T11:02:26;7.80;;;5.57;;
12163;SDS011;6145;50.192;10.064;2022-12-07T11:05:07;13.57;;;5.97;;
12163;SDS011;6145;50.192;10.064;2022-12-07T11:07:45;7.20;;;4.63;;
12163;SDS011;6145;50.192;10.064;2022-12-07T11:10:21;8.27;;;5.40;;
12163;SDS011;6145;50.192;10.064;2022-12-07T11:12:56;6.27;;;5.17;;
12163;SDS011;6145;50.192;10.064;2022-12-07T11:15:33;6.40;;;4.60;;
12163;SDS011;6145;50.192;10.064;2022-12-07T11:18:22;7.30;;;4.60;;
12163;SDS011;6145;50.192;10.064;2022-12-07T11:20:55;6.40;;;4.90;;
12163;SDS011;6145;50.192;10.064;2022-12-07T11:23:29;6.33;;;5.20;;
12163;SDS011;6145;50.192;10.064;2022-12-07T11:26:07;7.33;;;5.13;;
12163;SDS011;6145;50.192;10.064;2022-12-07T11:28:45;7.60;;;4.83;;
12163;SDS011;6145;50.192;10.064;2022-12-07T11:31:27;6.77;;;5.07;;
12163;SDS011;6145;50.192;10.064;2022-12-07T11:34:02;5.63;;;4.90;;
12163;SDS011;6145;50.192;10.064;2022-12-07T11:36:36;7.60;;;5.33;;
12163;SDS011;6145;50.192;10.064;2022-12-07T11:39:09;5.27;;;4.63;;
12163;SDS011;6145;50.192;10.064;2022-12-07T11:41:46;6.80;;;4.77;;
12163;SDS011;6145;50.192;10.064;2022-12-07T11:44:18;7.37;;;5.07;;
12163;SDS011;6145;50.192;10.064;2022-12-07T11:46:59;7.10;;;5.37;;
12163;SDS011;6145;50.192;10.064;2022-12-07T11:49:37;7.57;;;5.17;;
12163;SDS011;6145;50.192;10.064;2022-12-07T11:52:12;7.17;;;5.27;;
12163;SDS011;6145;50.192;10.064;2022-12-07T11:54:45;7.30;;;4.73;;
12163;SDS011;6145;50.192;10.064;2022-12-07T11:57:17;5.87;;;4.30;;
12163;SDS011;6145;50.192;10.064;2022-12-07T11:59:47;10.47;;;4.63;;
12163;SDS011;6145;50.192;10.064;2022-12-07T12:02:20;7.43;;;4.43;;
12163;SDS011;6145;50.192;10.064;2022-12-07T12:04:52;7.43;;;5.30;;
12163;SDS011;6145;50.192;10.064;2022-12-07T12:07:26;6.87;;;4.53;;
12163;SDS011;6145;50.192;10.064;2022-12-07T12:09:54;7.07;;;5.40;;
12163;SDS011;6145;50.192;10.064;2022-12-07T12:12:38;5.37;;;4.77;;
12163;SDS011;6145;50.192;10.064;2022-12-07T12:15:23;5.57;;;4.70;;
12163;SDS011;6145;50.192;10.064;2022-12-07T12:21:04;5.93;;;5.00;;
12163;SDS011;6145;50.192;10.064;2022-12-07T12:23:36;8.77;;;5.87;;
12163;SDS011;6145;50.192;10.064;2022-12-07T12:26:07;9.03;;;5.00;;
12163;SDS011;6145;50.192;10.064;2022-12-07T12:28:49;5.73;;;4.40;;
12163;SDS011;6145;50.192;10.064;2022-12-07T12:31:30;7.43;;;4.53;;
12163;SDS011;6145;50.192;10.064;2022-12-07T12:34:29;6.87;;;4.83;;
12163;SDS011;6145;50.192;10.064;2022-12-07T12:36:58;8.90;;;5.23;;
12163;SDS011;6145;50.192;10.064;2022-12-07T12:39:25;8.07;;;5.17;;
12163;SDS011;6145;50.192;10.064;2022-12-07T12:41:58;6.27;;;5.10;;
12163;SDS011;6145;50.192;10.064;2022-12-07T12:44:41;5.10;;;4.10;;
12163;SDS011;6145;50.192;10.064;2022-12-07T12:47:43;5.57;;;4.00;;
12163;SDS011;6145;50.192;10.064;2022-12-07T12:50:21;7.73;;;4.80;;
12163;SDS011;6145;50.192;10.064;2022-12-07T12:52:54;5.03;;;3.50;;
12163;SDS011;6145;50.192;10.064;2022-12-07T12:58:37;5.50;;;4.10;;
12163;SDS011;6145;50.192;10.064;2022-12-07T13:04:31;4.43;;;3.37;;
12163;SDS011;6145;50.192;10.064;2022-12-07T13:07:13;3.80;;;3.43;;
12163;SDS011;6145;50.192;10.064;2022-12-07T13:13:29;4.30;;;3.23;;
12163;SDS011;6145;50.192;10.064;2022-12-07T13:22:37;3.63;;;3.27;;
12163;SDS011;6145;50.192;10.064;2022-12-07T13:25:36;5.83;;;3.60;;
12163;SDS011;6145;50.192;10.064;2022-12-07T13:28:14;5.30;;;3.47;;
12163;SDS011;6145;50.192;10.064;2022-12-07T13:30:44;3.93;;;2.73;;
12163;SDS011;6145;50.192;10.064;2022-12-07T13:33:15;5.10;;;3.13;;
12163;SDS011;6145;50.192;10.064;2022-12-07T13:35:44;4.23;;;2.67;;
12163;SDS011;6145;50.192;10.064;2022-12-07T13:38:27;4.07;;;3.33;;
12163;SDS011;6145;50.192;10.064;2022-12-07T13:41:03;4.90;;;3.53;;
12163;SDS011;6145;50.192;10.064;2022-12-07T13:43:43;6.17;;;3.37;;
12163;SDS011;6145;50.192;10.064;2022-12-07T13:46:11;5.50;;;3.30;;
12163;SDS011;6145;50.192;10.064;2022-12-07T13:48:43;7.03;;;3.30;;
12163;SDS011;6145;50.192;10.064;2022-12-07T13:51:16;3.97;;;2.73;;
12163;SDS011;6145;50.192;10.064;2022-12-07T13:53:50;4.37;;;2.97;;
12163;SDS011;6145;50.192;10.064;2022-12-07T13:56:20;3.77;;;2.80;;
12163;SDS011;6145;50.192;10.064;2022-12-07T13:58:51;5.33;;;3.00;;
12163;SDS011;6145;50.192;10.064;2022-12-07T14:01:18;3.03;;;2.50;;
12163;SDS011;6145;50.192;10.064;2022-12-07T14:03:45;3.20;;;2.40;;
12163;SDS011;6145;50.192;10.064;2022-12-07T14:06:13;3.70;;;2.67;;
12163;SDS011;6145;50.192;10.064;2022-12-07T14:09:15;3.47;;;3.03;;
12163;SDS011;6145;50.192;10.064;2022-12-07T14:11:45;3.07;;;2.53;;
12163;SDS011;6145;50.192;10.064;2022-12-07T14:14:14;4.67;;;2.80;;
12163;SDS011;6145;50.192;10.064;2022-12-07T14:16:54;3.10;;;2.50;;
12163;SDS011;6145;50.192;10.064;2022-12-07T14:19:39;5.20;;;2.73;;
12163;SDS011;6145;50.192;10.064;2022-12-07T14:22:09;5.27;;;3.27;;
12163;SDS011;6145;50.192;10.064;2022-12-07T14:24:47;4.33;;;2.90;;
12163;SDS011;6145;50.192;10.064;2022-12-07T14:27:18;3.33;;;2.93;;
12163;SDS011;6145;50.192;10.064;2022-12-07T14:29:45;3.70;;;3.27;;
12163;SDS011;6145;50.192;10.064;2022-12-07T14:32:18;5.50;;;3.33;;
12163;SDS011;6145;50.192;10.064;2022-12-07T14:34:56;4.33;;;2.80;;
12163;SDS011;6145;50.192;10.064;2022-12-07T14:37:25;4.90;;;2.90;;
12163;SDS011;6145;50.192;10.064;2022-12-07T14:39:54;6.83;;;3.57;;
12163;SDS011;6145;50.192;10.064;2022-12-07T14:42:22;4.23;;;3.23;;
12163;SDS011;6145;50.192;10.064;2022-12-07T14:44:51;6.23;;;3.50;;
12163;SDS011;6145;50.192;10.064;2022-12-07T14:47:18;5.07;;;3.73;;
12163;SDS011;6145;50.192;10.064;2022-12-07T14:49:45;7.43;;;5.20;;
12163;SDS011;6145;50.192;10.064;2022-12-07T14:52:13;6.33;;;3.67;;
12163;SDS011;6145;50.192;10.064;2022-12-07T14:54:42;4.70;;;3.53;;
12163;SDS011;6145;50.192;10.064;2022-12-07T14:57:11;4.20;;;3.10;;
12163;SDS011;6145;50.192;10.064;2022-12-07T14:59:38;3.90;;;3.00;;
12163;SDS011;6145;50.192;10.064;2022-12-07T15:02:05;4.60;;;3.00;;
12163;SDS011;6145;50.192;10.064;2022-12-07T15:04:35;5.67;;;3.27;;
12163;SDS011;6145;50.192;10.064;2022-12-07T15:07:03;2.53;;;2.30;;
12163;SDS011;6145;50.192;10.064;2022-12-07T15:09:31;3.23;;;2.93;;
12163;SDS011;6145;50.192;10.064;2022-12-07T15:11:58;4.07;;;2.57;;
12163;SDS011;6145;50.192;10.064;2022-12-07T15:14:26;3.60;;;3.27;;
12163;SDS011;6145;50.192;10.064;2022-12-07T15:16:53;3.20;;;2.57;;
12163;SDS011;6145;50.192;10.064;2022-12-07T15:19:21;6.67;;;3.20;;
12163;SDS011;6145;50.192;10.064;2022-12-07T15:21:50;5.17;;;3.33;;
12163;SDS011;6145;50.192;10.064;2022-12-07T15:24:18;4.53;;;3.43;;
12163;SDS011;6145;50.192;10.064;2022-12-07T15:26:46;5.20;;;2.97;;